Time;durP1;ratioP1;P1;durP2;ratioP2;P2;SDS_P1;SDS_P2;PMS_P1;PMS_P2;Temp;Humidity;BMP_temperature;BMP_pressure;BME280_temperature;BME280_humidity;BME280_pressure;Samples;Min_cycle;Max_cycle;Signal;HPM_P1;HPM_P2
2023/08/24 00:01:21;;;;;;;2.90;2.38;;;15.70;99.90;;;;;;5128253;27;20046;-64
2023/08/24 00:03:47;;;;;;;3.85;2.38;;;15.70;99.90;;;;;;5132703;27;20064;-64
2023/08/24 00:06:13;;;;;;;3.30;2.20;;;15.60;99.90;;;;;;5119177;27;20517;-64
2023/08/24 00:08:39;;;;;;;4.55;2.13;;;15.60;99.90;;;;;;5126292;27;20047;-66
2023/08/24 00:11:05;;;;;;;2.50;2.00;;;15.60;99.90;;;;;;5113343;27;20434;-64
2023/08/24 00:13:31;;;;;;;3.38;1.92;;;15.60;99.90;;;;;;5107563;27;20098;-64
2023/08/24 00:15:57;;;;;;;4.57;2.30;;;15.60;99.90;;;;;;5136475;27;20046;-64
2023/08/24 00:18:23;;;;;;;3.08;2.17;;;15.60;99.90;;;;;;5124778;27;20043;-64
2023/08/24 00:20:49;;;;;;;3.05;2.72;;;15.50;99.90;;;;;;5128704;27;20041;-64
2023/08/24 00:23:15;;;;;;;3.58;2.17;;;15.50;99.90;;;;;;5132126;27;20493;-64
2023/08/24 00:25:40;;;;;;;3.05;1.95;;;15.50;99.90;;;;;;5099426;27;20065;-64
2023/08/24 00:28:06;;;;;;;2.90;2.28;;;15.50;99.90;;;;;;5111084;27;20054;-65
2023/08/24 00:30:32;;;;;;;3.30;2.50;;;15.50;99.90;;;;;;5118216;27;20074;-64
2023/08/24 00:32:58;;;;;;;2.63;2.20;;;15.50;99.90;;;;;;5115197;27;20082;-64
2023/08/24 00:35:24;;;;;;;2.58;2.03;;;15.50;99.90;;;;;;5115544;27;20092;-63
2023/08/24 00:37:50;;;;;;;3.00;2.20;;;15.50;99.90;;;;;;5099179;27;20055;-63
2023/08/24 00:40:16;;;;;;;3.65;2.22;;;15.50;99.90;;;;;;5130178;27;20035;-64
2023/08/24 00:42:44;;;;;;;3.25;2.25;;;15.50;99.90;;;;;;5126677;27;20157;-63
2023/08/24 00:45:11;;;;;;;5.22;2.70;;;15.50;99.90;;;;;;5115508;27;20158;-65
2023/08/24 00:47:44;;;;;;;3.53;2.53;;;15.50;99.90;;;;;;5115673;27;20045;-64
2023/08/24 00:50:10;;;;;;;4.93;2.60;;;15.50;99.90;;;;;;5114800;27;20055;-64
2023/08/24 00:52:39;;;;;;;3.25;2.47;;;15.50;99.90;;;;;;5139574;27;20155;-64
2023/08/24 00:55:06;;;;;;;3.53;3.00;;;15.50;99.90;;;;;;5115732;27;20031;-64
2023/08/24 00:57:32;;;;;;;8.48;3.15;;;15.50;99.90;;;;;;5126141;27;20396;-65
2023/08/24 01:00:01;;;;;;;6.90;2.95;;;15.50;99.90;;;;;;5134112;27;20030;-64
2023/08/24 01:02:27;;;;;;;3.08;2.47;;;15.50;99.90;;;;;;5118784;27;20051;-64
2023/08/24 01:04:53;;;;;;;4.88;3.40;;;15.50;99.90;;;;;;5115295;27;20458;-63
2023/08/24 01:07:20;;;;;;;5.57;2.72;;;15.50;99.90;;;;;;5117115;27;20060;-64
2023/08/24 01:09:47;;;;;;;3.97;3.45;;;15.50;99.90;;;;;;5114645;27;20482;-65
2023/08/24 01:12:19;;;;;;;6.07;3.10;;;15.50;99.90;;;;;;5130573;27;20039;-64
2023/08/24 01:14:58;;;;;;;6.05;3.85;;;15.50;99.90;;;;;;5135881;27;20068;-64
2023/08/24 01:17:28;;;;;;;3.72;3.28;;;15.50;99.90;;;;;;5133577;27;20039;-64
2023/08/24 01:19:55;;;;;;;5.07;3.50;;;15.50;99.90;;;;;;5098408;27;20035;-63
2023/08/24 01:22:31;;;;;;;4.70;3.10;;;15.60;99.90;;;;;;5114121;27;20043;-64
2023/08/24 01:25:10;;;;;;;7.13;4.05;;;15.60;99.90;;;;;;5129940;27;20213;-64
2023/08/24 01:27:37;;;;;;;5.05;3.35;;;15.60;99.90;;;;;;5116688;27;20094;-63
2023/08/24 01:30:07;;;;;;;9.23;4.43;;;15.70;99.90;;;;;;5114947;27;20035;-65
2023/08/24 01:32:33;;;;;;;6.25;4.50;;;15.70;99.90;;;;;;5124818;27;20047;-63
2023/08/24 01:35:05;;;;;;;6.20;4.25;;;15.70;99.90;;;;;;5135189;27;20035;-64
2023/08/24 01:37:32;;;;;;;6.47;4.47;;;15.80;99.90;;;;;;5109813;27;20184;-64
2023/08/24 01:40:12;;;;;;;9.77;4.97;;;15.80;99.90;;;;;;5132991;27;20039;-63
2023/08/24 01:42:48;;;;;;;7.68;4.15;;;15.90;99.90;;;;;;5127983;27;20138;-63
2023/08/24 01:45:18;;;;;;;7.68;4.40;;;16.00;99.90;;;;;;5133255;27;20474;-63
2023/08/24 01:47:45;;;;;;;11.43;5.22;;;16.00;99.90;;;;;;5133597;27;20043;-64
2023/08/24 01:50:12;;;;;;;9.05;4.32;;;16.00;99.90;;;;;;5119477;27;20108;-64
2023/08/24 01:52:38;;;;;;;8.45;4.85;;;16.10;99.90;;;;;;5113938;27;20051;-64
2023/08/24 01:55:04;;;;;;;9.18;5.47;;;16.00;99.90;;;;;;5133934;27;20104;-63
2023/08/24 01:57:30;;;;;;;6.57;4.85;;;16.10;99.90;;;;;;5115559;27;20042;-64
2023/08/24 01:59:55;;;;;;;10.02;4.60;;;16.10;99.90;;;;;;5125964;27;20034;-64
2023/08/24 02:02:21;;;;;;;7.13;4.68;;;16.10;99.90;;;;;;5128332;27;20035;-65
2023/08/24 02:04:47;;;;;;;5.93;4.57;;;16.10;99.90;;;;;;5114120;27;20043;-64
2023/08/24 02:07:13;;;;;;;10.00;4.53;;;16.10;99.90;;;;;;5138615;27;20131;-64
2023/08/24 02:09:39;;;;;;;8.70;4.70;;;16.10;99.90;;;;;;5099042;27;20054;-64
2023/08/24 02:12:04;;;;;;;6.38;4.38;;;16.10;99.90;;;;;;5134383;27;20107;-65
2023/08/24 02:14:30;;;;;;;6.63;4.75;;;16.10;99.90;;;;;;5133415;27;20437;-64
2023/08/24 02:16:56;;;;;;;10.73;5.60;;;16.10;99.90;;;;;;5133015;27;20080;-64
2023/08/24 02:19:21;;;;;;;7.65;4.60;;;16.10;99.90;;;;;;5134205;27;20038;-64
2023/08/24 02:21:47;;;;;;;7.15;4.32;;;16.10;99.90;;;;;;5134152;27;20043;-63
2023/08/24 02:24:12;;;;;;;7.97;5.00;;;16.10;99.90;;;;;;5133092;27;20092;-63
2023/08/24 02:26:38;;;;;;;6.15;4.22;;;16.10;99.90;;;;;;5113565;27;20068;-65
2023/08/24 02:29:04;;;;;;;6.97;4.40;;;16.10;99.90;;;;;;5098719;27;20031;-63
2023/08/24 02:31:30;;;;;;;7.22;4.28;;;16.10;99.90;;;;;;5114980;27;20051;-64
2023/08/24 02:33:56;;;;;;;11.23;5.40;;;16.10;99.90;;;;;;5114020;27;20031;-63
2023/08/24 02:36:21;;;;;;;7.45;4.38;;;16.10;99.90;;;;;;5115352;27;20359;-64
2023/08/24 02:38:47;;;;;;;7.13;4.95;;;16.10;99.90;;;;;;5134841;27;20091;-64
2023/08/24 02:41:14;;;;;;;6.90;4.47;;;16.10;99.90;;;;;;5120623;27;20042;-63
2023/08/24 02:43:40;;;;;;;5.88;4.15;;;16.10;99.90;;;;;;5152278;27;20118;-64
2023/08/24 02:46:08;;;;;;;9.85;4.72;;;16.20;99.90;;;;;;5143881;27;20122;-64
2023/08/24 02:48:34;;;;;;;5.63;4.50;;;16.20;99.90;;;;;;5113017;27;20118;-64
2023/08/24 02:51:02;;;;;;;7.30;4.22;;;16.20;99.90;;;;;;5113230;27;20514;-65
2023/08/24 02:53:28;;;;;;;5.97;4.65;;;16.20;99.90;;;;;;5108202;28;20470;-64
2023/08/24 02:55:54;;;;;;;7.97;4.72;;;16.20;99.90;;;;;;5109474;27;20039;-64
2023/08/24 02:58:20;;;;;;;7.65;4.43;;;16.20;99.90;;;;;;5093206;28;20047;-64
2023/08/24 03:00:46;;;;;;;5.50;4.30;;;16.20;99.90;;;;;;5127615;27;20054;-64
2023/08/24 03:03:14;;;;;;;7.22;4.28;;;16.10;99.90;;;;;;5116472;27;20028;-64
2023/08/24 03:05:40;;;;;;;5.88;4.50;;;16.10;99.90;;;;;;5110947;28;20059;-64
2023/08/24 03:08:06;;;;;;;6.40;4.47;;;16.10;99.90;;;;;;5117096;27;20110;-65
2023/08/24 03:10:35;;;;;;;7.38;4.32;;;16.00;99.90;;;;;;5131086;27;20038;-63
2023/08/24 03:13:00;;;;;;;6.20;4.72;;;16.00;99.90;;;;;;5128469;27;20042;-63
2023/08/24 03:15:26;;;;;;;6.50;4.45;;;16.00;99.90;;;;;;5130871;27;20050;-64
2023/08/24 03:17:52;;;;;;;7.97;4.60;;;16.00;99.90;;;;;;5120949;27;20035;-64
2023/08/24 03:20:18;;;;;;;8.43;5.03;;;15.90;99.90;;;;;;5110511;27;20039;-64
2023/08/24 03:22:44;;;;;;;7.07;5.32;;;15.90;99.90;;;;;;5108865;27;20039;-63
2023/08/24 03:25:10;;;;;;;6.95;4.93;;;15.90;99.90;;;;;;5129362;27;20490;-64
2023/08/24 03:27:35;;;;;;;7.95;5.00;;;15.90;99.90;;;;;;5109572;27;20077;-65
2023/08/24 03:30:04;;;;;;;8.80;5.00;;;15.90;99.90;;;;;;5093963;28;20105;-66
2023/08/24 03:32:29;;;;;;;6.78;5.00;;;15.80;99.90;;;;;;5108931;28;20846;-64
2023/08/24 03:35:02;;;;;;;6.10;5.07;;;15.80;99.90;;;;;;5126466;27;20031;-64
2023/08/24 03:37:28;;;;;;;7.72;4.28;;;15.80;99.90;;;;;;5124972;27;20445;-63
2023/08/24 03:39:54;;;;;;;8.38;4.90;;;15.80;99.90;;;;;;5128227;27;20066;-65
2023/08/24 03:42:19;;;;;;;6.32;4.80;;;15.70;99.90;;;;;;5109244;28;20112;-64
2023/08/24 03:44:45;;;;;;;9.20;4.90;;;15.70;99.90;;;;;;5111539;28;20047;-63
2023/08/24 03:47:11;;;;;;;9.40;5.03;;;15.70;99.90;;;;;;5108225;28;20043;-64
2023/08/24 03:49:37;;;;;;;6.80;4.50;;;15.60;99.90;;;;;;5101294;28;20051;-64
2023/08/24 03:52:03;;;;;;;7.35;4.90;;;15.60;99.90;;;;;;5129227;28;20047;-64
2023/08/24 03:54:29;;;;;;;5.50;5.00;;;15.60;99.90;;;;;;5113683;28;20050;-64
2023/08/24 03:56:54;;;;;;;7.38;4.75;;;15.50;99.90;;;;;;5095389;28;20027;-64
2023/08/24 03:59:20;;;;;;;7.05;5.03;;;15.60;99.90;;;;;;5107234;28;20047;-63
2023/08/24 04:01:45;;;;;;;6.03;5.07;;;15.50;99.90;;;;;;5108639;28;20062;-64
2023/08/24 04:04:11;;;;;;;7.28;5.47;;;15.50;99.90;;;;;;5107384;28;20043;-63
2023/08/24 04:06:37;;;;;;;8.75;5.50;;;15.50;99.90;;;;;;5098124;28;20040;-65
2023/08/24 04:09:04;;;;;;;5.80;5.30;;;15.40;99.90;;;;;;5107324;28;20050;-64
2023/08/24 04:11:30;;;;;;;8.48;5.43;;;15.40;99.90;;;;;;5104907;28;20050;-64
2023/08/24 04:13:55;;;;;;;6.20;5.43;;;15.30;99.90;;;;;;5108609;28;20036;-63
2023/08/24 04:16:21;;;;;;;6.63;5.30;;;15.30;99.90;;;;;;5106772;28;20393;-63
2023/08/24 04:18:47;;;;;;;7.72;5.00;;;15.30;99.90;;;;;;5108708;28;20040;-63
2023/08/24 04:21:12;;;;;;;8.93;5.80;;;15.20;99.90;;;;;;5104693;28;20050;-64
2023/08/24 04:23:39;;;;;;;6.22;5.63;;;15.30;99.90;;;;;;5108349;28;20367;-64
2023/08/24 04:26:05;;;;;;;6.43;5.00;;;15.20;99.90;;;;;;5104569;28;20063;-64
2023/08/24 04:28:30;;;;;;;8.32;5.43;;;15.20;99.90;;;;;;5108523;28;20048;-64
2023/08/24 04:30:57;;;;;;;7.57;5.63;;;15.20;99.90;;;;;;5117579;28;20046;-64
2023/08/24 04:33:23;;;;;;;9.30;5.50;;;15.20;99.90;;;;;;5130577;28;20023;-64
2023/08/24 04:35:49;;;;;;;7.90;5.43;;;15.20;99.90;;;;;;5095138;28;20093;-64
2023/08/24 04:38:15;;;;;;;6.88;5.43;;;15.30;99.90;;;;;;5106119;28;20031;-63
2023/08/24 04:40:55;;;;;;;7.05;5.78;;;15.30;99.90;;;;;;5109821;28;20065;-65
2023/08/24 04:43:23;;;;;;;8.30;6.10;;;15.30;99.90;;;;;;5103990;28;20137;-63
2023/08/24 04:45:53;;;;;;;10.10;6.57;;;15.30;99.90;;;;;;5108167;28;20486;-65
2023/08/24 04:48:23;;;;;;;10.05;6.20;;;15.30;99.90;;;;;;5091564;28;20084;-64
2023/08/24 04:50:49;;;;;;;12.15;6.55;;;15.30;99.90;;;;;;5109706;28;20460;-64
2023/08/24 04:53:17;;;;;;;10.25;7.28;;;15.40;99.90;;;;;;5116394;28;20063;-64
2023/08/24 04:55:43;;;;;;;8.30;6.50;;;15.40;99.90;;;;;;5092069;28;20079;-63
2023/08/24 04:58:09;;;;;;;8.95;6.38;;;15.40;99.90;;;;;;5095219;28;20031;-63
2023/08/24 05:00:35;;;;;;;8.55;6.95;;;15.40;99.90;;;;;;5111637;28;20391;-64
2023/08/24 05:03:02;;;;;;;10.75;6.82;;;15.50;99.90;;;;;;5125780;27;20043;-64
2023/08/24 05:05:32;;;;;;;11.25;7.10;;;15.50;99.90;;;;;;5114830;27;20043;-64
2023/08/24 05:07:59;;;;;;;10.07;7.10;;;15.50;99.90;;;;;;5102239;27;20074;-63
2023/08/24 05:10:25;;;;;;;11.15;7.40;;;15.60;99.90;;;;;;5125000;27;20058;-65
2023/08/24 05:12:51;;;;;;;9.80;6.95;;;15.50;99.90;;;;;;5124774;27;20039;-66
2023/08/24 05:15:17;;;;;;;8.27;6.57;;;15.60;99.90;;;;;;5118061;27;20040;-64
2023/08/24 05:17:43;;;;;;;9.02;7.13;;;15.60;99.90;;;;;;5113375;27;20044;-64
2023/08/24 05:20:10;;;;;;;10.88;7.30;;;15.70;99.90;;;;;;5121004;27;20371;-64
2023/08/24 05:22:36;;;;;;;10.43;6.63;;;15.70;99.90;;;;;;5126304;27;20031;-63
2023/08/24 05:25:02;;;;;;;10.63;7.57;;;15.80;99.90;;;;;;5112881;28;20028;-64
2023/08/24 05:27:28;;;;;;;10.68;7.00;;;15.80;99.90;;;;;;5113115;27;20133;-64
2023/08/24 05:29:53;;;;;;;9.75;7.90;;;15.90;99.90;;;;;;5094675;28;20047;-64
2023/08/24 05:32:19;;;;;;;10.73;7.13;;;15.90;99.90;;;;;;5112434;27;20047;-63
2023/08/24 05:34:45;;;;;;;12.23;6.90;;;15.90;99.90;;;;;;5111524;28;20109;-64
2023/08/24 05:37:11;;;;;;;9.80;7.50;;;16.00;99.90;;;;;;5111807;27;20047;-64
2023/08/24 05:39:37;;;;;;;10.10;6.63;;;16.00;99.90;;;;;;5114296;27;20565;-63
2023/08/24 05:42:02;;;;;;;8.35;7.13;;;16.10;99.90;;;;;;5114043;27;20138;-63
2023/08/24 05:44:28;;;;;;;9.13;6.80;;;16.10;99.90;;;;;;5116118;27;20035;-64
2023/08/24 05:46:53;;;;;;;8.23;7.18;;;16.20;99.90;;;;;;5111394;28;20051;-64
2023/08/24 05:49:19;;;;;;;11.38;6.65;;;16.30;99.90;;;;;;5115071;27;20039;-64
2023/08/24 05:51:45;;;;;;;8.20;6.63;;;16.30;99.90;;;;;;5122729;27;20455;-64
2023/08/24 05:54:11;;;;;;;9.98;7.15;;;16.30;99.90;;;;;;5118899;27;20436;-65
2023/08/24 05:56:36;;;;;;;10.93;6.65;;;16.40;99.90;;;;;;5114733;27;20031;-63
2023/08/24 05:59:02;;;;;;;8.73;6.80;;;16.50;99.90;;;;;;5117252;27;20397;-64
2023/08/24 06:01:28;;;;;;;8.82;6.43;;;16.70;99.90;;;;;;5117571;27;20509;-64
2023/08/24 06:03:53;;;;;;;10.77;6.70;;;16.80;99.90;;;;;;5134631;27;20035;-65
2023/08/24 06:06:19;;;;;;;11.10;6.40;;;16.90;99.90;;;;;;5134482;27;20106;-64
2023/08/24 06:08:45;;;;;;;8.27;6.18;;;16.90;99.90;;;;;;5133142;27;20456;-63
2023/08/24 06:11:10;;;;;;;7.57;5.72;;;17.00;99.90;;;;;;5114038;27;20035;-64
2023/08/24 06:13:36;;;;;;;8.50;6.22;;;16.90;99.90;;;;;;5114355;27;20035;-64
2023/08/24 06:16:02;;;;;;;7.65;6.13;;;16.90;99.90;;;;;;5114551;27;20035;-64
2023/08/24 06:18:28;;;;;;;9.13;5.78;;;16.80;99.90;;;;;;5097458;27;20464;-64
2023/08/24 06:20:54;;;;;;;8.68;6.07;;;16.90;99.90;;;;;;5132758;27;20119;-64
2023/08/24 06:23:21;;;;;;;8.45;5.88;;;17.00;99.90;;;;;;5132677;27;20072;-63
2023/08/24 06:25:47;;;;;;;7.10;5.90;;;17.10;99.90;;;;;;5114270;27;20031;-64
2023/08/24 06:28:13;;;;;;;8.90;6.45;;;17.30;99.90;;;;;;5114228;27;20112;-65
2023/08/24 06:30:39;;;;;;;10.38;6.00;;;17.40;99.90;;;;;;5113976;27;20468;-65
2023/08/24 06:33:06;;;;;;;9.25;5.72;;;17.50;99.90;;;;;;5114200;27;20042;-64
2023/08/24 06:35:35;;;;;;;10.88;6.05;;;17.70;99.90;;;;;;5117893;27;20077;-64
2023/08/24 06:38:02;;;;;;;9.30;5.80;;;17.80;99.90;;;;;;5117586;27;20037;-65
2023/08/24 06:40:28;;;;;;;9.15;6.10;;;17.90;99.90;;;;;;5123014;27;20047;-63
2023/08/24 06:42:54;;;;;;;7.45;5.68;;;18.10;99.90;;;;;;5114057;27;20123;-65
2023/08/24 06:45:20;;;;;;;11.77;6.20;;;18.10;99.90;;;;;;5132094;27;20154;-65
2023/08/24 06:47:46;;;;;;;8.00;6.53;;;18.30;99.90;;;;;;5113915;27;20436;-63
2023/08/24 06:50:11;;;;;;;9.32;5.93;;;18.40;99.90;;;;;;5132047;27;20069;-64
2023/08/24 06:52:37;;;;;;;6.28;5.68;;;18.50;99.90;;;;;;5113702;27;20057;-64
2023/08/24 06:55:04;;;;;;;10.63;7.07;;;18.70;99.90;;;;;;5129529;27;20117;-65
2023/08/24 06:57:30;;;;;;;13.13;7.05;;;18.80;99.90;;;;;;5134467;27;20041;-66
2023/08/24 06:59:56;;;;;;;9.15;6.57;;;18.90;99.90;;;;;;5117033;27;20031;-65
2023/08/24 07:02:22;;;;;;;10.15;6.70;;;19.00;99.90;;;;;;5152712;27;20477;-65
2023/08/24 07:04:48;;;;;;;10.32;6.85;;;19.20;99.90;;;;;;5116430;27;20043;-64
2023/08/24 07:07:13;;;;;;;11.82;6.85;;;19.30;99.90;;;;;;5134022;27;20083;-64
2023/08/24 07:09:39;;;;;;;11.73;7.68;;;19.40;99.90;;;;;;5133839;27;20054;-64
2023/08/24 07:12:07;;;;;;;9.00;6.75;;;19.50;99.90;;;;;;5133610;27;20042;-64
2023/08/24 07:14:36;;;;;;;8.05;6.35;;;19.60;99.90;;;;;;5122971;27;20031;-65
2023/08/24 07:17:02;;;;;;;9.63;7.20;;;19.80;99.90;;;;;;5113398;27;20039;-63
2023/08/24 07:19:28;;;;;;;11.18;7.40;;;19.90;99.90;;;;;;5131680;27;20066;-63
2023/08/24 07:21:54;;;;;;;9.77;7.18;;;20.10;99.90;;;;;;5131206;27;20439;-64
2023/08/24 07:24:20;;;;;;;9.00;6.82;;;20.20;99.90;;;;;;5147556;27;20042;-65
2023/08/24 07:26:46;;;;;;;9.95;6.43;;;20.30;99.90;;;;;;5152231;27;20039;-64
2023/08/24 07:29:12;;;;;;;10.40;6.88;;;20.40;99.90;;;;;;5133643;27;20034;-63
2023/08/24 07:31:38;;;;;;;12.25;6.50;;;20.50;99.90;;;;;;5133660;27;20168;-64
2023/08/24 07:34:03;;;;;;;9.15;6.90;;;20.70;99.90;;;;;;5125047;27;20031;-65
2023/08/24 07:36:30;;;;;;;9.27;7.15;;;20.70;99.90;;;;;;5098321;27;20079;-64
2023/08/24 07:38:56;;;;;;;10.68;6.68;;;20.80;99.90;;;;;;5112844;27;20149;-65
2023/08/24 07:41:22;;;;;;;10.20;7.03;;;20.80;99.90;;;;;;5131761;27;20171;-64
2023/08/24 07:43:47;;;;;;;8.77;6.47;;;20.90;99.90;;;;;;5112718;27;20038;-63
2023/08/24 07:46:13;;;;;;;9.68;6.90;;;21.00;99.90;;;;;;5113350;27;20035;-64
2023/08/24 07:48:39;;;;;;;9.20;6.97;;;21.20;99.90;;;;;;5113153;27;20039;-64
2023/08/24 07:51:05;;;;;;;14.68;6.85;;;21.30;99.90;;;;;;5131214;27;20051;-64
2023/08/24 07:53:32;;;;;;;13.30;6.35;;;21.50;99.90;;;;;;5113087;27;20046;-64
2023/08/24 07:55:59;;;;;;;9.40;6.53;;;21.60;99.90;;;;;;5113023;27;20131;-64
2023/08/24 07:58:25;;;;;;;9.20;6.13;;;21.80;99.90;;;;;;5113128;28;20035;-64
2023/08/24 08:00:51;;;;;;;7.70;6.30;;;21.90;99.90;;;;;;5131158;27;20027;-64
2023/08/24 08:03:20;;;;;;;10.68;6.95;;;22.00;99.90;;;;;;5112732;27;20030;-64
2023/08/24 08:05:47;;;;;;;10.02;6.35;;;22.00;99.90;;;;;;5112827;27;20537;-64
2023/08/24 08:08:16;;;;;;;12.88;6.72;;;22.10;99.90;;;;;;5112750;27;20039;-64
2023/08/24 08:10:42;;;;;;;8.93;6.50;;;22.20;99.90;;;;;;5112668;27;20046;-63
2023/08/24 08:13:11;;;;;;;7.65;6.30;;;22.40;99.90;;;;;;5112585;27;20043;-65
2023/08/24 08:15:38;;;;;;;8.88;6.57;;;22.50;99.90;;;;;;5112889;27;20114;-63
2023/08/24 08:18:04;;;;;;;7.72;6.40;;;22.60;99.90;;;;;;5112950;27;20111;-63
2023/08/24 08:20:30;;;;;;;9.07;6.60;;;22.60;99.90;;;;;;5112619;28;20101;-64
2023/08/24 08:22:56;;;;;;;11.15;6.82;;;22.70;99.90;;;;;;5112702;27;20537;-64
2023/08/24 08:25:22;;;;;;;8.15;6.10;;;22.80;99.90;;;;;;5112517;27;20114;-65
2023/08/24 08:27:49;;;;;;;10.98;6.28;;;22.90;99.90;;;;;;5112620;27;20494;-64
2023/08/24 08:30:15;;;;;;;8.15;6.38;;;23.10;99.90;;;;;;5133037;27;20034;-65
2023/08/24 08:32:41;;;;;;;10.52;6.40;;;23.10;99.90;;;;;;5133783;27;20058;-63
2023/08/24 08:35:08;;;;;;;8.15;6.50;;;23.20;99.90;;;;;;5136989;27;20050;-66
2023/08/24 08:37:33;;;;;;;8.52;6.57;;;23.30;99.90;;;;;;5137208;27;20079;-64
2023/08/24 08:39:59;;;;;;;10.00;6.18;;;23.50;99.90;;;;;;5136915;27;20430;-64
2023/08/24 08:42:25;;;;;;;9.02;6.40;;;23.60;99.90;;;;;;5136929;27;20043;-66
2023/08/24 08:44:54;;;;;;;7.20;5.53;;;23.70;99.90;;;;;;5136630;27;20049;-63
2023/08/24 08:47:20;;;;;;;6.72;5.82;;;23.70;99.90;;;;;;5137051;27;20396;-65
2023/08/24 08:49:48;;;;;;;10.13;5.88;;;23.80;99.90;;;;;;5136646;27;20410;-65
2023/08/24 08:52:14;;;;;;;8.98;5.90;;;23.90;99.90;;;;;;5155074;27;20481;-65
2023/08/24 08:54:40;;;;;;;9.00;6.28;;;23.90;99.90;;;;;;5136732;27;20031;-64
2023/08/24 08:57:07;;;;;;;8.15;5.60;;;23.90;99.90;;;;;;5119607;27;20114;-64
2023/08/24 08:59:33;;;;;;;7.65;5.78;;;23.90;99.90;;;;;;5155354;27;20122;-64
2023/08/24 09:02:01;;;;;;;9.07;5.65;;;24.00;99.90;;;;;;5136198;27;20049;-64
2023/08/24 09:04:29;;;;;;;7.75;5.82;;;24.00;99.90;;;;;;5136435;27;20096;-64
2023/08/24 09:06:56;;;;;;;10.10;6.60;;;23.90;99.90;;;;;;5136171;27;20055;-64
2023/08/24 09:09:22;;;;;;;7.68;6.30;;;23.90;99.90;;;;;;5136237;27;20042;-65
2023/08/24 09:11:48;;;;;;;8.20;6.13;;;23.90;99.90;;;;;;5136214;27;20126;-65
2023/08/24 09:14:14;;;;;;;8.38;6.05;;;23.90;99.90;;;;;;5154670;27;20115;-65
2023/08/24 09:16:42;;;;;;;9.20;5.90;;;23.90;99.90;;;;;;5136405;27;20038;-64
2023/08/24 09:19:11;;;;;;;8.18;5.68;;;24.00;99.90;;;;;;5136154;27;20047;-65
2023/08/24 09:21:38;;;;;;;10.18;5.93;;;24.00;99.90;;;;;;5136109;27;20113;-66
2023/08/24 09:24:04;;;;;;;10.07;6.13;;;23.90;99.90;;;;;;5124983;27;20111;-65
2023/08/24 09:26:31;;;;;;;8.38;6.20;;;23.90;99.90;;;;;;5115720;27;20038;-64
2023/08/24 09:28:58;;;;;;;8.70;7.03;;;23.90;99.90;;;;;;5115459;27;20039;-65
2023/08/24 09:31:35;;;;;;;8.85;6.80;;;23.80;99.90;;;;;;5133598;27;20043;-65
2023/08/24 09:34:01;;;;;;;10.68;7.40;;;23.60;99.90;;;;;;5115781;27;20043;-64
2023/08/24 09:36:26;;;;;;;9.48;6.50;;;23.50;99.90;;;;;;5132980;27;20041;-65
2023/08/24 09:38:55;;;;;;;9.27;7.00;;;23.40;99.90;;;;;;5135958;27;20420;-64
2023/08/24 09:41:21;;;;;;;11.20;7.40;;;23.30;99.90;;;;;;5135465;27;20052;-65
2023/08/24 09:43:46;;;;;;;9.65;6.63;;;23.10;99.90;;;;;;5135742;27;20129;-65
2023/08/24 09:46:20;;;;;;;10.60;7.18;;;23.00;99.90;;;;;;5134718;27;20069;-64
2023/08/24 09:48:52;;;;;;;16.40;7.47;;;23.00;99.90;;;;;;5154210;27;20030;-65
2023/08/24 09:51:18;;;;;;;9.98;7.00;;;22.90;99.90;;;;;;5135288;27;20051;-65
2023/08/24 09:53:44;;;;;;;10.45;7.70;;;22.80;99.90;;;;;;5135937;27;20059;-64
2023/08/24 09:56:12;;;;;;;11.98;7.47;;;22.80;99.90;;;;;;5153994;27;20039;-64
2023/08/24 09:58:38;;;;;;;9.90;7.35;;;22.70;99.90;;;;;;5135861;27;20358;-64
2023/08/24 10:01:06;;;;;;;10.15;6.88;;;22.60;99.90;;;;;;5153875;27;20090;-65
2023/08/24 10:03:33;;;;;;;8.25;6.82;;;22.70;99.90;;;;;;5135274;27;20046;-65
2023/08/24 10:06:00;;;;;;;10.02;6.88;;;22.60;99.90;;;;;;5135643;27;20397;-64
2023/08/24 10:08:39;;;;;;;9.38;7.40;;;22.60;99.90;;;;;;5098367;27;20047;-64
2023/08/24 10:11:07;;;;;;;7.75;6.95;;;22.50;99.90;;;;;;5114529;27;20034;-65
2023/08/24 10:13:57;;;;;;;9.60;7.20;;;22.50;99.90;;;;;;5132747;27;20538;-64
2023/08/24 10:16:24;;;;;;;7.35;6.18;;;22.50;99.90;;;;;;5114528;27;20043;-65
2023/08/24 10:18:51;;;;;;;8.88;6.97;;;22.50;99.90;;;;;;5114467;27;20099;-64
2023/08/24 10:21:18;;;;;;;9.65;7.47;;;22.50;99.90;;;;;;5152085;27;20110;-65
2023/08/24 10:23:45;;;;;;;9.52;7.53;;;22.50;99.90;;;;;;5135392;27;20481;-65
2023/08/24 10:26:13;;;;;;;8.63;7.53;;;22.50;99.90;;;;;;5134830;27;20034;-65
2023/08/24 10:28:39;;;;;;;11.27;7.72;;;22.40;99.90;;;;;;5134535;27;20053;-64
2023/08/24 10:31:06;;;;;;;9.25;7.05;;;22.40;99.90;;;;;;5135061;27;20034;-64
2023/08/24 10:33:34;;;;;;;13.38;7.95;;;22.40;99.90;;;;;;5153318;27;20027;-64
2023/08/24 10:35:59;;;;;;;10.02;7.95;;;22.40;99.90;;;;;;5134619;27;20022;-65
2023/08/24 10:38:29;;;;;;;10.07;7.80;;;22.30;99.90;;;;;;5116154;27;20049;-63
2023/08/24 10:41:04;;;;;;;11.02;7.80;;;22.30;99.90;;;;;;5114075;27;20096;-65
2023/08/24 10:43:29;;;;;;;9.32;7.63;;;22.40;99.90;;;;;;5113869;27;20050;-64
2023/08/24 10:45:56;;;;;;;10.80;7.00;;;22.40;99.90;;;;;;5114060;27;20047;-63
2023/08/24 10:48:23;;;;;;;9.20;7.55;;;22.40;99.90;;;;;;5097015;27;20035;-63
2023/08/24 10:51:14;;;;;;;11.02;7.85;;;22.40;99.90;;;;;;5110229;28;20063;-64
2023/08/24 10:53:41;;;;;;;9.43;7.63;;;22.40;99.90;;;;;;5110263;28;20063;-64
2023/08/24 10:56:14;;;;;;;10.18;7.38;;;22.40;99.90;;;;;;5126615;27;20150;-64
2023/08/24 10:58:40;;;;;;;11.32;7.82;;;22.40;99.90;;;;;;5130510;27;20095;-64
2023/08/24 11:01:06;;;;;;;11.50;7.70;;;22.50;99.90;;;;;;5130724;27;20101;-64
2023/08/24 11:03:33;;;;;;;8.57;6.95;;;22.50;99.90;;;;;;5130499;27;20077;-64
2023/08/24 11:05:58;;;;;;;12.07;7.78;;;22.50;99.90;;;;;;5130596;27;20069;-64
2023/08/24 11:08:47;;;;;;;9.52;7.53;;;22.60;99.90;;;;;;5131834;27;20486;-64
2023/08/24 11:11:24;;;;;;;9.52;7.80;;;22.60;99.90;;;;;;5130687;27;20035;-64
2023/08/24 11:14:22;;;;;;;8.43;7.38;;;22.70;99.90;;;;;;5130806;27;20584;-63
2023/08/24 11:16:48;;;;;;;8.57;7.50;;;22.70;99.90;;;;;;5117144;27;20049;-65
2023/08/24 11:19:15;;;;;;;12.88;8.13;;;22.80;99.90;;;;;;5110214;28;20388;-64
2023/08/24 11:21:43;;;;;;;10.13;7.88;;;22.80;99.90;;;;;;5127630;27;20047;-64
2023/08/24 11:24:17;;;;;;;10.82;8.00;;;22.90;99.90;;;;;;5130482;27;20047;-65
2023/08/24 11:26:44;;;;;;;12.20;8.40;;;23.00;99.90;;;;;;5130077;27;20054;-63
2023/08/24 11:29:10;;;;;;;9.88;7.68;;;23.00;99.90;;;;;;5130347;27;20116;-64
2023/08/24 11:31:37;;;;;;;9.18;7.93;;;23.20;99.90;;;;;;5129933;27;20043;-65
2023/08/24 11:34:04;;;;;;;11.75;7.78;;;23.30;99.90;;;;;;5130269;27;20035;-65
2023/08/24 11:36:31;;;;;;;8.85;7.93;;;23.30;99.90;;;;;;5099373;28;20550;-63
2023/08/24 11:38:58;;;;;;;9.60;8.60;;;23.30;99.90;;;;;;5127381;27;20147;-64
2023/08/24 11:41:24;;;;;;;10.70;8.32;;;23.30;99.90;;;;;;5112802;28;20135;-65
2023/08/24 11:43:59;;;;;;;8.90;8.00;;;23.40;99.90;;;;;;5131243;27;20075;-64
2023/08/24 11:46:24;;;;;;;12.55;7.82;;;23.40;99.90;;;;;;5130051;27;20065;-66
2023/08/24 11:48:50;;;;;;;11.07;8.07;;;23.40;99.90;;;;;;5129962;28;20043;-65
2023/08/24 11:51:17;;;;;;;8.07;7.15;;;23.30;99.90;;;;;;5110521;28;20576;-64
2023/08/24 11:53:47;;;;;;;9.85;7.50;;;23.30;99.90;;;;;;5129899;28;20069;-64
2023/08/24 11:56:13;;;;;;;8.63;7.78;;;23.30;99.90;;;;;;5131486;28;20192;-64
2023/08/24 11:58:47;;;;;;;9.32;7.97;;;23.30;99.90;;;;;;5129806;28;20031;-64
2023/08/24 12:01:13;;;;;;;13.88;8.38;;;23.30;99.90;;;;;;5130320;28;20035;-64
2023/08/24 12:03:39;;;;;;;12.32;8.40;;;23.30;99.90;;;;;;5129752;28;20084;-63
2023/08/24 12:06:13;;;;;;;10.70;8.20;;;23.30;99.90;;;;;;5129860;28;20027;-64
2023/08/24 12:08:45;;;;;;;9.07;7.30;;;23.30;99.90;;;;;;5133344;27;20031;-63
2023/08/24 12:11:16;;;;;;;10.68;7.85;;;23.30;99.90;;;;;;5112684;27;20138;-64
2023/08/24 12:13:53;;;;;;;10.17;9.00;;;23.40;99.90;;;;;;5113667;27;20059;-64
2023/08/24 12:16:20;;;;;;;9.52;7.97;;;23.40;99.90;;;;;;5113580;28;20027;-65
2023/08/24 12:18:47;;;;;;;9.55;7.93;;;23.40;99.90;;;;;;5113011;28;20044;-64
2023/08/24 12:21:13;;;;;;;9.23;8.25;;;23.50;99.90;;;;;;5113177;28;20514;-63
2023/08/24 12:23:39;;;;;;;9.93;7.93;;;23.50;99.90;;;;;;5113505;27;20057;-64
2023/08/24 12:26:07;;;;;;;11.15;8.38;;;23.50;99.90;;;;;;5112990;28;20032;-64
2023/08/24 12:28:33;;;;;;;12.40;8.20;;;23.60;99.90;;;;;;5114473;28;20058;-63
2023/08/24 12:31:03;;;;;;;11.38;8.32;;;23.60;99.90;;;;;;5115422;27;20027;-63
2023/08/24 12:33:31;;;;;;;9.43;7.78;;;23.60;99.90;;;;;;5134848;27;20035;-64
2023/08/24 12:35:58;;;;;;;9.73;7.97;;;23.70;99.90;;;;;;5133708;27;20045;-65
2023/08/24 12:38:26;;;;;;;9.77;8.68;;;23.70;99.90;;;;;;5134854;27;20046;-63
2023/08/24 12:40:52;;;;;;;10.18;7.65;;;23.70;99.90;;;;;;5133292;27;20047;-62
2023/08/24 12:43:18;;;;;;;9.88;7.65;;;23.70;99.90;;;;;;5135031;27;20080;-66